createdAt,value
2019-05-21T00:00:28.515Z,14.47
2019-05-21T00:02:56.919Z,14.00
2019-05-21T00:05:25.297Z,18.20
2019-05-21T00:07:53.781Z,16.90
2019-05-21T00:10:22.092Z,15.23
2019-05-21T00:12:50.492Z,14.70
2019-05-21T00:15:18.857Z,15.00
2019-05-21T00:17:47.259Z,15.55
2019-05-21T00:20:15.769Z,15.10
2019-05-21T00:22:44.118Z,15.40
2019-05-21T00:25:16.732Z,15.80
2019-05-21T00:27:42.755Z,15.32
2019-05-21T00:30:29.473Z,15.65
2019-05-21T00:33:15.908Z,13.25
2019-05-21T00:36:03.806Z,15.15
2019-05-21T00:38:52.055Z,14.78
2019-05-21T00:41:40.181Z,17.45
2019-05-21T00:44:08.765Z,12.75
2019-05-21T00:46:37.122Z,13.83
2019-05-21T00:49:05.583Z,14.58
2019-05-21T00:51:33.980Z,12.95
2019-05-21T00:54:02.439Z,11.35
2019-05-21T00:56:30.885Z,10.58
2019-05-21T00:58:59.060Z,11.25
2019-05-21T01:01:27.625Z,13.90
2019-05-21T01:03:55.991Z,12.60
2019-05-21T01:06:24.487Z,13.48
2019-05-21T01:08:52.897Z,11.28
2019-05-21T01:11:21.263Z,15.65
2019-05-21T01:13:49.619Z,10.20
2019-05-21T01:16:18.103Z,9.78
2019-05-21T01:18:46.558Z,11.43
2019-05-21T01:21:14.899Z,11.73
2019-05-21T01:23:43.436Z,10.32
2019-05-21T01:26:11.917Z,12.63
2019-05-21T01:28:40.289Z,11.35
2019-05-21T01:31:08.677Z,11.70
2019-05-21T01:33:37.144Z,12.23
2019-05-21T01:36:05.627Z,10.30
2019-05-21T01:38:34.035Z,9.03
2019-05-21T01:41:02.384Z,11.38
2019-05-21T01:43:30.740Z,14.78
2019-05-21T01:45:59.131Z,10.65
2019-05-21T01:48:29.346Z,12.70
2019-05-21T01:50:57.627Z,15.20
2019-05-21T01:53:26.032Z,12.00
2019-05-21T01:55:54.406Z,18.27
2019-05-21T01:58:22.874Z,16.97
2019-05-21T02:00:51.494Z,16.90
2019-05-21T02:03:19.947Z,17.55
2019-05-21T02:05:49.767Z,14.95
2019-05-21T02:08:18.229Z,13.70
2019-05-21T02:10:46.601Z,14.00
2019-05-21T02:13:14.971Z,14.38
2019-05-21T02:15:43.389Z,13.15
2019-05-21T02:18:11.726Z,11.65
2019-05-21T02:20:40.128Z,13.65
2019-05-21T02:23:08.625Z,10.72
2019-05-21T02:25:37.190Z,12.15
2019-05-21T02:28:05.592Z,11.25
2019-05-21T02:30:34.992Z,10.05
2019-05-21T02:33:03.312Z,9.90
2019-05-21T02:35:31.748Z,14.18
2019-05-21T02:37:59.963Z,15.15
2019-05-21T02:40:28.346Z,14.15
2019-05-21T02:42:56.764Z,14.25
2019-05-21T02:45:25.187Z,13.22
2019-05-21T02:47:53.538Z,15.43
2019-05-21T02:50:21.846Z,14.45
2019-05-21T02:52:50.226Z,13.93
2019-05-21T02:55:18.652Z,13.78
2019-05-21T02:57:47.041Z,13.88
2019-05-21T03:00:30.155Z,15.53
2019-05-21T03:03:00.219Z,15.72
2019-05-21T03:05:28.631Z,14.45
2019-05-21T03:07:57.056Z,14.70
2019-05-21T03:10:25.483Z,15.25
2019-05-21T03:12:55.037Z,13.60
2019-05-21T03:15:23.503Z,14.80
2019-05-21T03:17:52.996Z,13.85
2019-05-21T03:20:21.488Z,15.23
2019-05-21T03:22:49.968Z,10.65
2019-05-21T03:25:19.347Z,12.33
2019-05-21T03:27:47.872Z,10.23
2019-05-21T03:30:16.358Z,11.10
2019-05-21T03:32:44.696Z,10.38
2019-05-21T03:35:13.211Z,9.80
2019-05-21T03:37:41.559Z,10.48
2019-05-21T03:40:10.368Z,10.75
2019-05-21T03:42:39.064Z,12.25
2019-05-21T03:45:08.269Z,14.90
2019-05-21T03:47:37.067Z,13.10
2019-05-21T03:50:05.920Z,12.65
2019-05-21T03:52:34.322Z,10.53
2019-05-21T03:55:03.240Z,13.65
2019-05-21T03:57:31.977Z,13.03
2019-05-21T04:00:00.470Z,12.60
2019-05-21T04:02:28.959Z,12.40
2019-05-21T04:04:57.335Z,13.83
2019-05-21T04:07:25.684Z,12.53
2019-05-21T04:09:54.071Z,13.25
2019-05-21T04:12:22.465Z,13.38
2019-05-21T04:14:52.798Z,11.00
2019-05-21T04:17:22.812Z,11.97
2019-05-21T04:19:52.416Z,12.05
2019-05-21T04:22:20.818Z,12.05
2019-05-21T04:24:49.169Z,13.83
2019-05-21T04:27:17.672Z,12.43
2019-05-21T04:29:46.134Z,12.50
2019-05-21T04:32:14.490Z,13.95
2019-05-21T04:34:42.897Z,12.33
2019-05-21T04:37:17.101Z,11.50
2019-05-21T04:39:42.297Z,10.95
2019-05-21T04:42:10.801Z,10.68
2019-05-21T04:44:39.231Z,10.82
2019-05-21T04:47:07.865Z,10.48
2019-05-21T04:49:36.145Z,9.65
2019-05-21T04:52:04.495Z,9.38
2019-05-21T04:54:32.993Z,8.90
2019-05-21T04:57:01.458Z,9.18
2019-05-21T04:59:30.985Z,9.33
2019-05-21T05:01:59.684Z,10.28
2019-05-21T05:04:28.243Z,10.78
2019-05-21T05:06:56.944Z,11.85
2019-05-21T05:09:25.406Z,9.98
2019-05-21T05:11:53.724Z,9.98
2019-05-21T05:14:21.965Z,10.58
2019-05-21T05:16:50.262Z,9.18
2019-05-21T05:19:18.567Z,7.15
2019-05-21T05:21:46.987Z,7.40
2019-05-21T05:24:15.332Z,6.97
2019-05-21T05:26:43.730Z,7.70
2019-05-21T05:29:12.009Z,9.33
2019-05-21T05:31:40.361Z,8.70
2019-05-21T05:34:08.667Z,8.35
2019-05-21T05:36:37.153Z,9.08
2019-05-21T05:39:07.700Z,7.70
2019-05-21T05:41:35.962Z,7.65
2019-05-21T05:44:04.489Z,7.12
2019-05-21T05:46:33.002Z,7.80
2019-05-21T05:49:03.037Z,8.30
2019-05-21T05:51:31.419Z,7.47
2019-05-21T05:54:00.024Z,7.85
2019-05-21T05:56:28.705Z,7.00
2019-05-21T05:58:57.076Z,8.60
2019-05-21T06:01:26.163Z,8.05
2019-05-21T06:03:54.586Z,8.50
2019-05-21T06:06:22.988Z,7.83
2019-05-21T06:08:51.237Z,7.00
2019-05-21T06:11:19.588Z,7.12
2019-05-21T06:13:47.949Z,6.62
2019-05-21T06:16:16.233Z,6.95
2019-05-21T06:18:44.605Z,7.03
2019-05-21T06:21:13.012Z,6.55
2019-05-21T06:23:41.289Z,6.30
2019-05-21T06:26:09.846Z,6.62
2019-05-21T06:28:38.201Z,4.95
2019-05-21T06:31:06.638Z,5.87
2019-05-21T06:33:35.310Z,5.05
2019-05-21T06:36:03.655Z,5.95
2019-05-21T06:38:32.042Z,6.25
2019-05-21T06:41:00.544Z,5.95
2019-05-21T06:43:29.017Z,5.37
2019-05-21T06:45:57.484Z,6.37
2019-05-21T06:48:25.715Z,5.78
2019-05-21T06:50:53.999Z,5.10
2019-05-21T06:53:22.461Z,4.42
2019-05-21T06:55:50.725Z,3.87
2019-05-21T06:58:19.084Z,4.03
2019-05-21T07:00:47.451Z,3.65
2019-05-21T07:03:15.826Z,3.65
2019-05-21T07:05:57.521Z,4.33
2019-05-21T07:08:14.067Z,3.70
2019-05-21T07:10:42.348Z,3.72
2019-05-21T07:13:10.673Z,4.17
2019-05-21T07:15:39.068Z,3.60
2019-05-21T07:18:07.434Z,3.45
2019-05-21T07:20:35.828Z,3.22
2019-05-21T07:23:04.351Z,3.25
2019-05-21T07:25:32.772Z,3.60
2019-05-21T07:28:01.056Z,3.45
2019-05-21T07:30:29.388Z,3.55
2019-05-21T07:32:57.886Z,3.95
2019-05-21T07:35:26.656Z,3.70
2019-05-21T07:37:55.160Z,3.92
2019-05-21T07:40:23.438Z,3.60
2019-05-21T07:42:51.734Z,4.22
2019-05-21T07:45:20.128Z,3.62
2019-05-21T07:47:48.509Z,3.40
2019-05-21T07:50:16.862Z,3.83
2019-05-21T07:52:45.228Z,3.92
2019-05-21T07:55:13.616Z,3.30
2019-05-21T07:57:41.901Z,3.50
2019-05-21T08:00:10.580Z,3.67
2019-05-21T08:02:38.917Z,3.12
2019-05-21T08:05:07.739Z,3.55
2019-05-21T08:07:36.050Z,3.33
2019-05-21T08:10:05.833Z,3.27
2019-05-21T08:12:39.708Z,3.50
2019-05-21T08:15:05.679Z,3.40
2019-05-21T08:17:34.056Z,3.42
2019-05-21T08:20:09.581Z,3.50
2019-05-21T08:22:32.518Z,3.85
2019-05-21T08:25:01.041Z,3.45
2019-05-21T08:27:29.407Z,4.17
2019-05-21T08:29:57.592Z,3.90
2019-05-21T08:32:25.957Z,3.98
2019-05-21T08:34:54.213Z,3.80
2019-05-21T08:37:22.728Z,3.62
2019-05-21T08:39:51.263Z,4.50
2019-05-21T08:42:19.595Z,4.05
2019-05-21T08:44:48.072Z,4.90
2019-05-21T08:47:16.345Z,4.87
2019-05-21T08:49:44.644Z,4.25
2019-05-21T08:52:12.989Z,4.78
2019-05-21T08:54:49.236Z,5.53
2019-05-21T08:57:17.548Z,5.22
2019-05-21T08:59:45.837Z,5.42
2019-05-21T09:02:14.281Z,5.55
2019-05-21T09:04:46.251Z,5.08
2019-05-21T09:07:12.488Z,6.75
2019-05-21T09:09:49.962Z,5.22
2019-05-21T09:12:10.707Z,5.92
2019-05-21T09:14:39.018Z,6.10
2019-05-21T09:17:07.316Z,5.78
2019-05-21T09:19:36.628Z,5.62
2019-05-21T09:22:05.433Z,6.97
2019-05-21T09:24:33.808Z,6.95
2019-05-21T09:27:02.163Z,7.90
2019-05-21T09:29:31.714Z,7.70
2019-05-21T09:32:00.038Z,8.00
2019-05-21T09:34:28.367Z,8.35
2019-05-21T09:36:56.765Z,8.30
2019-05-21T09:39:25.051Z,8.03
2019-05-21T09:41:53.375Z,8.43
2019-05-21T09:44:21.654Z,8.05
2019-05-21T09:46:50.227Z,6.90
2019-05-21T09:49:19.739Z,7.78
2019-05-21T09:51:48.127Z,7.78
2019-05-21T09:54:16.597Z,8.00
2019-05-21T09:56:44.802Z,9.13
2019-05-21T09:59:30.128Z,8.95
2019-05-21T10:02:15.526Z,10.05
2019-05-21T10:04:44.219Z,8.28
2019-05-21T10:07:13.717Z,7.33
2019-05-21T10:09:42.181Z,7.20
2019-05-21T10:12:10.470Z,7.35
2019-05-21T10:14:38.774Z,7.22
2019-05-21T10:17:07.208Z,6.87
2019-05-21T10:19:35.515Z,7.78
2019-05-21T10:22:04.263Z,7.80
2019-05-21T10:24:32.850Z,8.83
2019-05-21T10:27:03.383Z,8.55
2019-05-21T10:29:31.378Z,8.90
2019-05-21T10:32:00.794Z,8.15
2019-05-21T10:34:29.142Z,8.13
2019-05-21T10:36:57.534Z,8.48
2019-05-21T10:39:25.884Z,8.63
2019-05-21T10:41:54.396Z,9.15
2019-05-21T10:44:22.864Z,8.05
2019-05-21T10:46:52.477Z,7.67
2019-05-21T10:49:21.074Z,7.97
2019-05-21T10:51:49.656Z,8.13
2019-05-21T10:54:18.147Z,9.55
2019-05-21T10:56:48.315Z,9.50
2019-05-21T10:59:16.525Z,9.03
2019-05-21T11:01:52.701Z,10.05
2019-05-21T11:04:28.581Z,9.05
2019-05-21T11:06:57.002Z,8.83
2019-05-21T11:09:26.100Z,9.48
2019-05-21T11:11:54.326Z,8.43
2019-05-21T11:14:22.764Z,7.03
2019-05-21T11:16:51.059Z,8.58
2019-05-21T11:19:19.368Z,9.53
2019-05-21T11:21:47.794Z,9.93
2019-05-21T11:24:16.171Z,8.45
2019-05-21T11:26:44.475Z,9.60
2019-05-21T11:29:12.921Z,8.00
2019-05-21T11:31:55.896Z,9.60
2019-05-21T11:34:11.324Z,9.03
2019-05-21T11:36:39.636Z,8.25
2019-05-21T11:39:08.143Z,7.92
2019-05-21T11:41:36.561Z,9.13
2019-05-21T11:44:04.919Z,8.90
2019-05-21T11:46:33.538Z,9.13
2019-05-21T11:49:01.902Z,8.53
2019-05-21T11:51:30.285Z,8.20
2019-05-21T11:53:58.554Z,8.30
2019-05-21T11:56:27.050Z,8.00
2019-05-21T11:58:55.315Z,7.85
2019-05-21T12:01:24.705Z,7.83
2019-05-21T12:03:53.050Z,9.20
2019-05-21T12:06:21.488Z,9.93
2019-05-21T12:08:56.995Z,9.20
2019-05-21T12:11:19.763Z,8.75
2019-05-21T12:13:48.240Z,9.05
2019-05-21T12:16:17.640Z,9.33
2019-05-21T12:18:45.923Z,10.00
2019-05-21T12:21:14.319Z,8.63
2019-05-21T12:23:42.608Z,9.43
2019-05-21T12:26:10.954Z,9.30
2019-05-21T12:28:39.242Z,8.23
2019-05-21T12:31:07.632Z,8.80
2019-05-21T12:33:36.111Z,8.43
2019-05-21T12:36:05.139Z,8.38
2019-05-21T12:38:33.448Z,8.95
2019-05-21T12:41:01.742Z,8.40
2019-05-21T12:43:30.094Z,7.20
2019-05-21T12:45:58.514Z,7.53
2019-05-21T12:48:26.877Z,8.03
2019-05-21T12:50:55.172Z,6.92
2019-05-21T12:53:23.556Z,8.60
2019-05-21T12:55:52.247Z,8.38
2019-05-21T12:58:20.805Z,7.72
2019-05-21T13:00:49.303Z,7.35
2019-05-21T13:03:17.870Z,7.55
2019-05-21T13:05:46.357Z,7.37
2019-05-21T13:08:14.833Z,7.25
2019-05-21T13:10:43.766Z,7.62
2019-05-21T13:13:12.323Z,7.28
2019-05-21T13:15:40.923Z,6.35
2019-05-21T13:18:09.589Z,7.12
2019-05-21T13:20:38.067Z,6.10
2019-05-21T13:23:06.641Z,7.62
2019-05-21T13:25:36.065Z,6.60
2019-05-21T13:28:04.742Z,6.83
2019-05-21T13:30:33.325Z,6.20
2019-05-21T13:33:01.917Z,6.03
2019-05-21T13:35:30.493Z,5.55
2019-05-21T13:37:58.985Z,5.30
2019-05-21T13:40:27.768Z,5.72
2019-05-21T13:42:56.339Z,5.30
2019-05-21T13:45:24.842Z,5.90
2019-05-21T13:47:53.408Z,5.72
2019-05-21T13:50:21.809Z,5.97
2019-05-21T13:52:50.276Z,5.25
2019-05-21T13:55:18.743Z,6.33
2019-05-21T13:57:47.230Z,7.53
2019-05-21T14:00:34.183Z,9.25
2019-05-21T14:03:03.126Z,7.80
2019-05-21T14:05:33.502Z,7.45
2019-05-21T14:08:02.054Z,6.90
2019-05-21T14:10:30.619Z,7.33
2019-05-21T14:12:59.214Z,6.45
2019-05-21T14:15:27.795Z,6.10
2019-05-21T14:17:56.481Z,5.58
2019-05-21T14:20:25.162Z,5.50
2019-05-21T14:22:53.604Z,5.28
2019-05-21T14:25:22.118Z,5.17
2019-05-21T14:27:50.540Z,5.17
2019-05-21T14:30:20.357Z,5.17
2019-05-21T14:32:49.275Z,5.05
2019-05-21T14:35:17.968Z,5.08
2019-05-21T14:37:47.520Z,5.67
2019-05-21T14:40:30.330Z,5.12
2019-05-21T14:42:59.489Z,4.95
2019-05-21T14:45:16.769Z,4.95
2019-05-21T14:47:45.306Z,4.65
2019-05-21T14:50:13.791Z,4.50
2019-05-21T14:52:42.384Z,4.87
2019-05-21T14:55:10.960Z,4.65
2019-05-21T14:57:39.310Z,4.67
2019-05-21T15:00:16.157Z,4.15
2019-05-21T15:02:44.684Z,4.55
2019-05-21T15:05:13.399Z,4.40
2019-05-21T15:07:41.845Z,3.83
2019-05-21T15:10:10.114Z,4.05
2019-05-21T15:12:38.644Z,4.37
2019-05-21T15:15:07.100Z,4.00
2019-05-21T15:17:35.585Z,3.67
2019-05-21T15:20:08.167Z,3.15
2019-05-21T15:22:36.589Z,3.85
2019-05-21T15:25:05.536Z,3.95
2019-05-21T15:27:34.008Z,3.30
2019-05-21T15:30:02.559Z,3.98
2019-05-21T15:32:31.387Z,4.05
2019-05-21T15:34:59.967Z,3.67
2019-05-21T15:37:28.956Z,3.83
2019-05-21T15:39:57.659Z,4.00
2019-05-21T15:42:25.970Z,4.22
2019-05-21T15:44:54.513Z,4.53
2019-05-21T15:47:23.198Z,4.70
2019-05-21T15:49:51.781Z,4.60
2019-05-21T15:52:20.465Z,4.78
2019-05-21T15:54:48.927Z,5.00
2019-05-21T15:57:17.837Z,4.15
2019-05-21T15:59:46.417Z,4.80
2019-05-21T16:02:14.999Z,4.92
2019-05-21T16:04:43.390Z,4.80
2019-05-21T16:07:11.960Z,4.97
2019-05-21T16:09:41.385Z,4.70
2019-05-21T16:12:10.776Z,5.05
2019-05-21T16:14:39.341Z,5.10
2019-05-21T16:17:07.826Z,5.08
2019-05-21T16:19:36.311Z,4.90
2019-05-21T16:22:04.993Z,4.87
2019-05-21T16:24:33.588Z,4.72
2019-05-21T16:27:02.170Z,5.62
2019-05-21T16:29:30.731Z,4.60
2019-05-21T16:31:59.227Z,5.17
2019-05-21T16:34:31.346Z,5.15
2019-05-21T16:36:57.817Z,5.83
2019-05-21T16:39:26.302Z,5.25
2019-05-21T16:41:55.051Z,5.85
2019-05-21T16:44:23.774Z,6.42
2019-05-21T16:46:52.266Z,6.03
2019-05-21T16:49:20.851Z,6.10
2019-05-21T16:51:49.436Z,6.65
2019-05-21T16:54:17.904Z,5.97
2019-05-21T16:56:46.390Z,6.25
2019-05-21T16:59:14.868Z,7.75
2019-05-21T17:01:43.335Z,9.08
2019-05-21T17:04:11.833Z,8.38
2019-05-21T17:06:40.326Z,7.55
2019-05-21T17:09:10.234Z,9.15
2019-05-21T17:11:38.820Z,8.98
2019-05-21T17:14:07.272Z,9.70
2019-05-21T17:16:35.553Z,9.63
2019-05-21T17:19:04.135Z,8.80
2019-05-21T17:21:34.395Z,9.43
2019-05-21T17:24:02.859Z,8.95
2019-05-21T17:26:31.347Z,9.23
2019-05-21T17:28:59.686Z,10.25
2019-05-21T17:31:28.215Z,9.83
2019-05-21T17:33:56.670Z,10.40
2019-05-21T17:36:25.145Z,10.82
2019-05-21T17:38:53.528Z,10.38
2019-05-21T17:41:22.009Z,10.90
2019-05-21T17:43:50.491Z,10.82
2019-05-21T17:46:18.998Z,10.43
2019-05-21T17:48:47.447Z,10.35
2019-05-21T17:51:15.832Z,11.88
2019-05-21T17:53:44.326Z,12.75
2019-05-21T17:56:12.860Z,13.00
2019-05-21T17:58:41.592Z,15.48
2019-05-21T18:01:11.928Z,16.75
2019-05-21T18:03:40.590Z,18.55
2019-05-21T18:06:09.079Z,25.52
2019-05-21T18:08:39.345Z,30.52
2019-05-21T18:11:07.949Z,26.45
2019-05-21T18:13:37.202Z,18.27
2019-05-21T18:16:06.107Z,18.62
2019-05-21T18:18:34.863Z,18.40
2019-05-21T18:21:04.144Z,16.45
2019-05-21T18:23:32.886Z,16.87
2019-05-21T18:26:01.417Z,28.60
2019-05-21T18:28:29.806Z,14.78
2019-05-21T18:30:59.217Z,15.00
2019-05-21T18:33:27.657Z,22.40
2019-05-21T18:35:56.108Z,18.20
2019-05-21T18:38:26.102Z,29.85
2019-05-21T18:40:54.544Z,32.60
2019-05-21T18:43:22.944Z,33.40
2019-05-21T18:45:51.304Z,35.63
2019-05-21T18:48:20.621Z,31.35
2019-05-21T18:50:48.945Z,29.00
2019-05-21T18:53:17.386Z,25.90
2019-05-21T18:55:46.900Z,25.77
2019-05-21T18:58:17.416Z,26.82
2019-05-21T19:00:45.677Z,25.23
2019-05-21T19:03:14.066Z,25.25
2019-05-21T19:05:42.486Z,24.52
2019-05-21T19:08:11.046Z,22.55
2019-05-21T19:10:40.603Z,22.65
2019-05-21T19:13:08.992Z,21.73
2019-05-21T19:15:37.362Z,21.93
2019-05-21T19:18:05.885Z,20.92
2019-05-21T19:20:34.342Z,21.85
2019-05-21T19:23:02.834Z,23.70
2019-05-21T19:25:31.460Z,19.55
2019-05-21T19:27:59.865Z,17.55
2019-05-21T19:30:28.593Z,17.75
2019-05-21T19:32:56.881Z,15.63
2019-05-21T19:35:25.471Z,19.30
2019-05-21T19:37:53.756Z,15.75
2019-05-21T19:40:22.518Z,14.40
2019-05-21T19:42:54.985Z,14.80
2019-05-21T19:45:20.890Z,14.87
2019-05-21T19:47:49.393Z,15.85
2019-05-21T19:50:17.974Z,16.50
2019-05-21T19:52:46.432Z,13.60
2019-05-21T19:55:15.335Z,15.68
2019-05-21T19:57:44.893Z,15.25
2019-05-21T20:00:16.382Z,15.13
2019-05-21T20:02:48.003Z,16.32
2019-05-21T20:05:14.898Z,16.90
2019-05-21T20:07:43.981Z,15.50
2019-05-21T20:10:13.760Z,17.60
2019-05-21T20:12:42.299Z,16.37
2019-05-21T20:15:10.881Z,16.25
2019-05-21T20:17:42.947Z,16.45
2019-05-21T20:20:12.020Z,15.15
2019-05-21T20:22:41.237Z,16.82
2019-05-21T20:25:11.076Z,16.90
2019-05-21T20:27:39.630Z,17.37
2019-05-21T20:30:13.165Z,19.62
2019-05-21T20:32:42.625Z,18.25
2019-05-21T20:35:12.244Z,18.65
2019-05-21T20:37:41.261Z,18.57
2019-05-21T20:40:12.815Z,18.90
2019-05-21T20:42:41.567Z,19.05
2019-05-21T20:45:13.767Z,19.10
2019-05-21T20:47:41.965Z,18.40
2019-05-21T20:50:12.559Z,19.57
2019-05-21T20:52:40.908Z,21.60
2019-05-21T20:55:09.388Z,19.70
2019-05-21T20:57:37.869Z,19.55
2019-05-21T21:00:11.047Z,21.00
2019-05-21T21:02:41.735Z,19.85
2019-05-21T21:05:11.403Z,20.97
2019-05-21T21:07:39.886Z,18.32
2019-05-21T21:10:09.004Z,19.92
2019-05-21T21:12:38.513Z,17.25
2019-05-21T21:15:07.072Z,20.72
2019-05-21T21:17:35.547Z,19.30
2019-05-21T21:20:05.466Z,19.77
2019-05-21T21:22:34.107Z,20.77
2019-05-21T21:25:03.486Z,19.35
2019-05-21T21:27:32.852Z,21.62
2019-05-21T21:30:01.135Z,20.20
2019-05-21T21:32:29.733Z,21.23
2019-05-21T21:34:58.193Z,17.67
2019-05-21T21:37:26.565Z,22.13
2019-05-21T21:39:55.076Z,20.95
2019-05-21T21:42:23.793Z,17.70
2019-05-21T21:44:52.122Z,17.12
2019-05-21T21:47:21.418Z,17.57
2019-05-21T21:49:50.098Z,17.32
2019-05-21T21:52:18.594Z,18.20
2019-05-21T21:54:48.867Z,16.80
2019-05-21T21:57:17.234Z,15.15
2019-05-21T21:59:45.793Z,21.07
2019-05-21T22:02:15.675Z,16.82
2019-05-21T22:04:45.303Z,14.10
2019-05-21T22:07:15.625Z,15.25
2019-05-21T22:09:43.801Z,15.93
2019-05-21T22:12:13.949Z,17.07
2019-05-21T22:14:51.690Z,18.80
2019-05-21T22:17:14.676Z,15.43
2019-05-21T22:19:43.349Z,17.35
2019-05-21T22:22:11.768Z,15.88
2019-05-21T22:24:40.343Z,14.40
2019-05-21T22:27:08.812Z,17.23
2019-05-21T22:29:37.950Z,14.63
2019-05-21T22:32:07.509Z,15.65
2019-05-21T22:34:35.987Z,14.18
2019-05-21T22:37:06.168Z,13.08
2019-05-21T22:39:35.520Z,12.93
2019-05-21T22:42:04.192Z,12.65
2019-05-21T22:44:33.162Z,11.68
2019-05-21T22:47:01.774Z,11.63
2019-05-21T22:49:33.886Z,11.80
2019-05-21T22:52:00.566Z,11.05
2019-05-21T22:54:29.145Z,10.32
2019-05-21T22:56:58.853Z,11.70
2019-05-21T22:59:27.364Z,9.63
2019-05-21T23:01:57.624Z,9.95
2019-05-21T23:04:26.268Z,9.73
2019-05-21T23:06:56.166Z,10.08
2019-05-21T23:09:24.471Z,10.48
2019-05-21T23:11:52.941Z,11.10
2019-05-21T23:14:21.288Z,10.60
2019-05-21T23:16:49.765Z,10.95
2019-05-21T23:19:24.116Z,12.15
2019-05-21T23:21:53.638Z,12.50
2019-05-21T23:24:23.487Z,11.88
2019-05-21T23:26:52.711Z,12.95
2019-05-21T23:29:20.905Z,13.20
2019-05-21T23:31:49.260Z,12.35
2019-05-21T23:34:19.020Z,13.43
2019-05-21T23:36:47.561Z,14.15
2019-05-21T23:39:17.696Z,14.55
2019-05-21T23:41:47.845Z,15.72
2019-05-21T23:44:16.697Z,15.48
2019-05-21T23:46:45.392Z,16.87
2019-05-21T23:49:13.759Z,15.60
2019-05-21T23:51:42.233Z,16.52
2019-05-21T23:54:11.036Z,16.37
2019-05-21T23:56:39.396Z,16.85
2019-05-21T23:59:07.737Z,19.67
